Time;durP1;ratioP1;P1;durP2;ratioP2;P2;SDS_P1;SDS_P2;PMS_P1;PMS_P2;Temp;Humidity;BMP_temperature;BMP_pressure;BME280_temperature;BME280_humidity;BME280_pressure;Samples;Min_cycle;Max_cycle;Signal;HPM_P1;HPM_P2
2022/08/16 00:00:23;;;;;;;5.77;5.37;;;31.10;39.40;;;;;;5054764;28;20446;-79
2022/08/16 00:02:52;;;;;;;6.57;6.07;;;31.10;39.40;;;;;;5054369;28;20446;-79
2022/08/16 00:05:20;;;;;;;6.40;5.80;;;31.10;39.40;;;;;;5057686;28;20466;-82
2022/08/16 00:07:49;;;;;;;5.80;5.40;;;31.10;39.40;;;;;;5055726;28;20478;-79
2022/08/16 00:10:26;;;;;;;5.77;5.37;;;31.10;39.60;;;;;;5054301;28;20457;-80
2022/08/16 00:12:55;;;;;;;5.63;5.23;;;31.00;39.50;;;;;;5078086;28;20428;-80
2022/08/16 00:15:28;;;;;;;5.90;5.50;;;31.00;39.60;;;;;;5078301;28;20451;-79
2022/08/16 00:18:16;;;;;;;5.87;5.47;;;31.00;39.60;;;;;;5078388;28;20458;-79
2022/08/16 00:20:48;;;;;;;5.17;4.87;;;31.00;39.60;;;;;;5078072;28;20423;-79
2022/08/16 00:23:19;;;;;;;5.17;4.87;;;31.00;39.60;;;;;;5074184;28;20525;-80
2022/08/16 00:26:02;;;;;;;5.57;5.20;;;30.90;39.60;;;;;;5060584;28;20517;-80
2022/08/16 00:28:50;;;;;;;5.80;5.43;;;30.90;39.70;;;;;;5059960;28;20431;-81
2022/08/16 00:31:21;;;;;;;5.00;4.73;;;30.90;39.50;;;;;;5061100;28;20438;-81
2022/08/16 00:33:51;;;;;;;4.97;4.67;;;30.90;40.20;;;;;;5060554;28;20458;-80
2022/08/16 00:36:19;;;;;;;5.20;4.90;;;30.80;39.70;;;;;;5061511;28;20422;-81
2022/08/16 00:38:51;;;;;;;5.53;5.13;;;30.70;39.80;;;;;;5062998;28;20927;-80
2022/08/16 00:41:24;;;;;;;5.53;5.20;;;30.70;39.70;;;;;;5062529;28;20590;-81
2022/08/16 00:43:52;;;;;;;5.30;5.00;;;30.70;39.70;;;;;;5062838;28;20486;-81
2022/08/16 00:46:22;;;;;;;5.13;4.83;;;30.70;39.80;;;;;;5062931;28;20421;-81
2022/08/16 00:49:03;;;;;;;5.33;5.00;;;30.70;39.80;;;;;;5063033;28;20413;-81
2022/08/16 00:51:31;;;;;;;5.07;4.77;;;30.70;39.70;;;;;;5062832;28;20466;-81
2022/08/16 00:54:00;;;;;;;5.00;4.70;;;30.70;39.80;;;;;;5062307;28;20473;-81
2022/08/16 00:56:31;;;;;;;6.30;5.80;;;30.60;39.80;;;;;;5061937;28;20489;-81
2022/08/16 00:59:20;;;;;;;5.40;5.10;;;30.60;39.90;;;;;;5061604;28;20405;-81
2022/08/16 01:01:50;;;;;;;5.40;5.10;;;30.60;39.80;;;;;;5062278;28;20438;-81
2022/08/16 01:04:20;;;;;;;5.30;5.00;;;30.60;39.90;;;;;;5063059;28;20448;-81
2022/08/16 01:06:56;;;;;;;5.50;5.10;;;30.60;39.90;;;;;;5062934;28;20420;-81
2022/08/16 01:09:30;;;;;;;5.83;5.40;;;30.60;39.90;;;;;;5062600;28;20467;-81
2022/08/16 01:12:02;;;;;;;5.30;4.97;;;30.50;40.00;;;;;;5063092;28;20786;-81
2022/08/16 01:14:32;;;;;;;5.13;4.83;;;30.50;39.90;;;;;;5062107;28;20474;-81
2022/08/16 01:17:00;;;;;;;5.60;5.20;;;30.50;40.00;;;;;;5061570;28;20458;-81
2022/08/16 01:19:29;;;;;;;5.07;4.77;;;30.50;40.00;;;;;;5062593;28;20442;-80
2022/08/16 01:21:59;;;;;;;5.87;5.43;;;30.40;39.80;;;;;;5063386;28;20442;-81
2022/08/16 01:24:50;;;;;;;5.50;5.10;;;30.40;40.00;;;;;;5060012;28;20545;-81
2022/08/16 01:27:24;;;;;;;5.27;4.87;;;30.40;39.90;;;;;;5059703;28;20495;-81
2022/08/16 01:29:56;;;;;;;5.20;4.90;;;30.40;39.90;;;;;;5060562;28;20442;-81
2022/08/16 01:32:28;;;;;;;5.10;4.80;;;30.40;40.00;;;;;;5060468;28;20443;-81
2022/08/16 01:35:05;;;;;;;5.00;4.70;;;30.30;40.00;;;;;;5061318;28;20469;-80
2022/08/16 01:37:39;;;;;;;5.27;4.97;;;30.30;40.20;;;;;;5061225;28;20495;-80
2022/08/16 01:40:11;;;;;;;4.97;4.67;;;30.20;40.20;;;;;;5061224;28;20421;-80
2022/08/16 01:42:39;;;;;;;5.73;5.33;;;30.20;40.20;;;;;;5059921;28;20495;-80
2022/08/16 01:45:09;;;;;;;5.50;5.20;;;30.20;40.10;;;;;;5062753;28;20470;-80
2022/08/16 01:47:38;;;;;;;5.53;5.07;;;30.20;40.20;;;;;;5064812;28;20445;-80
2022/08/16 01:50:16;;;;;;;5.17;4.77;;;30.20;40.20;;;;;;5065225;28;20454;-80
2022/08/16 01:53:04;;;;;;;5.00;4.70;;;30.10;40.20;;;;;;5064266;28;20474;-80
2022/08/16 01:55:34;;;;;;;5.17;4.77;;;30.10;40.20;;;;;;5063654;28;20467;-80
2022/08/16 01:58:02;;;;;;;5.47;5.10;;;30.10;40.10;;;;;;5064032;28;20450;-81
2022/08/16 02:00:30;;;;;;;5.13;4.80;;;30.10;40.00;;;;;;5063973;28;20538;-81
2022/08/16 02:02:59;;;;;;;5.30;5.00;;;30.10;40.20;;;;;;5063642;28;20454;-81
2022/08/16 02:05:29;;;;;;;5.50;5.10;;;30.10;40.20;;;;;;5064048;28;20437;-81
2022/08/16 02:07:57;;;;;;;5.70;5.37;;;30.10;40.40;;;;;;5064051;28;20455;-81
2022/08/16 02:10:26;;;;;;;5.07;4.77;;;30.10;40.20;;;;;;5064399;28;20474;-81
2022/08/16 02:12:55;;;;;;;5.60;5.20;;;30.10;40.30;;;;;;5063692;28;20452;-80
2022/08/16 02:15:28;;;;;;;5.20;4.90;;;30.10;40.50;;;;;;5063428;28;20535;-79
2022/08/16 02:17:57;;;;;;;5.70;5.30;;;30.10;40.40;;;;;;5065558;28;20469;-79
2022/08/16 02:20:25;;;;;;;4.63;4.33;;;30.00;40.20;;;;;;5065205;28;20409;-79
2022/08/16 02:22:55;;;;;;;5.20;4.80;;;30.00;40.30;;;;;;5063254;28;20440;-79
2022/08/16 02:25:23;;;;;;;5.13;4.83;;;29.90;40.30;;;;;;5064056;28;20834;-79
2022/08/16 02:27:51;;;;;;;4.80;4.50;;;29.90;40.40;;;;;;5062273;28;20470;-80
2022/08/16 02:30:22;;;;;;;5.17;4.87;;;29.90;40.60;;;;;;5064912;28;20473;-80
2022/08/16 02:33:09;;;;;;;5.50;5.10;;;29.90;40.40;;;;;;5065224;28;20444;-80
2022/08/16 02:35:37;;;;;;;5.57;5.20;;;29.80;40.40;;;;;;5064065;28;20890;-80
2022/08/16 02:38:27;;;;;;;5.53;5.17;;;29.80;40.50;;;;;;5063978;28;20442;-79
2022/08/16 02:40:59;;;;;;;5.07;4.77;;;29.80;40.50;;;;;;5063877;28;20450;-80
2022/08/16 02:43:29;;;;;;;5.20;4.90;;;29.70;40.40;;;;;;5063223;28;20447;-80
2022/08/16 02:46:01;;;;;;;5.33;5.03;;;29.70;40.50;;;;;;5064081;28;20450;-80
2022/08/16 02:48:34;;;;;;;5.80;5.30;;;29.70;40.50;;;;;;5062908;28;20462;-80
2022/08/16 02:51:05;;;;;;;4.87;4.57;;;29.70;40.60;;;;;;5063812;28;20446;-79
2022/08/16 02:53:41;;;;;;;5.53;5.23;;;29.70;40.50;;;;;;5062712;28;20421;-80
2022/08/16 02:56:11;;;;;;;5.60;5.20;;;29.60;40.50;;;;;;5063772;28;20444;-80
2022/08/16 02:58:42;;;;;;;5.20;4.90;;;29.70;40.70;;;;;;5064088;28;20449;-81
2022/08/16 03:01:12;;;;;;;4.77;4.47;;;29.60;40.50;;;;;;5066005;28;20537;-80
2022/08/16 03:04:00;;;;;;;5.27;4.97;;;29.60;40.50;;;;;;5066147;28;20500;-81
2022/08/16 03:06:50;;;;;;;5.13;4.83;;;29.50;40.60;;;;;;5063804;28;20438;-80
2022/08/16 03:09:23;;;;;;;5.53;5.03;;;29.50;40.50;;;;;;5063755;28;20451;-80
2022/08/16 03:11:55;;;;;;;4.87;4.57;;;29.50;40.60;;;;;;5065250;28;20455;-80
2022/08/16 03:14:24;;;;;;;5.07;4.77;;;29.50;40.60;;;;;;5065000;28;20471;-80
2022/08/16 03:16:54;;;;;;;5.00;4.70;;;29.50;40.80;;;;;;5063725;28;20485;-80
2022/08/16 03:19:27;;;;;;;4.80;4.50;;;29.40;40.70;;;;;;5061794;28;20413;-80
2022/08/16 03:22:15;;;;;;;5.00;4.70;;;29.50;40.80;;;;;;5061813;28;20459;-78
2022/08/16 03:24:55;;;;;;;4.90;4.50;;;29.50;40.80;;;;;;5061359;28;20444;-81
2022/08/16 03:27:24;;;;;;;5.27;4.87;;;29.40;40.70;;;;;;5062264;28;20425;-78
2022/08/16 03:29:59;;;;;;;5.27;4.97;;;29.50;40.60;;;;;;5061022;28;20516;-79
2022/08/16 03:32:28;;;;;;;4.80;4.50;;;29.40;40.50;;;;;;5061659;28;20466;-79
2022/08/16 03:34:56;;;;;;;5.13;4.63;;;29.40;40.60;;;;;;5063264;28;20466;-79
2022/08/16 03:37:24;;;;;;;4.80;4.50;;;29.40;40.60;;;;;;5063657;28;20446;-79
2022/08/16 03:39:55;;;;;;;5.20;4.80;;;29.30;40.60;;;;;;5062622;28;20422;-80
2022/08/16 03:42:29;;;;;;;4.57;4.37;;;29.30;40.80;;;;;;5065042;28;20446;-80
2022/08/16 03:44:58;;;;;;;4.30;4.10;;;29.30;40.70;;;;;;5064712;28;20445;-80
2022/08/16 03:47:32;;;;;;;4.63;4.43;;;29.30;40.60;;;;;;5064886;28;20454;-80
2022/08/16 03:50:01;;;;;;;5.33;5.03;;;29.30;40.60;;;;;;5063419;28;20452;-80
2022/08/16 03:52:30;;;;;;;4.67;4.47;;;29.30;40.80;;;;;;5063921;28;20421;-79
2022/08/16 03:54:58;;;;;;;4.20;3.90;;;29.30;40.80;;;;;;5063285;28;20522;-79
2022/08/16 03:57:27;;;;;;;5.30;4.90;;;29.20;40.70;;;;;;5062660;28;20409;-79
2022/08/16 04:00:11;;;;;;;4.50;4.27;;;29.20;40.80;;;;;;5062447;28;20477;-80
2022/08/16 04:03:05;;;;;;;4.93;4.63;;;29.20;40.60;;;;;;5063154;28;20432;-80
2022/08/16 04:05:36;;;;;;;6.63;4.63;;;29.20;40.80;;;;;;5063048;28;20466;-80
2022/08/16 04:08:04;;;;;;;5.33;4.93;;;29.20;40.80;;;;;;5063139;28;20453;-80
2022/08/16 04:10:51;;;;;;;4.77;4.47;;;29.20;41.00;;;;;;5060730;28;20412;-80
2022/08/16 04:13:20;;;;;;;5.17;4.87;;;29.10;41.10;;;;;;5060377;28;20406;-80
2022/08/16 04:16:08;;;;;;;5.97;5.40;;;29.10;41.20;;;;;;5061064;28;20432;-80
2022/08/16 04:18:56;;;;;;;5.30;5.00;;;29.20;41.20;;;;;;5060549;28;20475;-80
2022/08/16 04:21:29;;;;;;;5.73;5.33;;;29.20;41.20;;;;;;5060340;28;20420;-79
2022/08/16 04:23:59;;;;;;;5.50;5.10;;;29.10;41.20;;;;;;5060460;28;20458;-80
2022/08/16 04:26:27;;;;;;;6.10;5.60;;;29.10;41.30;;;;;;5060602;28;20438;-80
2022/08/16 04:28:59;;;;;;;5.30;5.00;;;29.10;41.40;;;;;;5060768;28;20475;-80
2022/08/16 04:31:47;;;;;;;5.60;5.30;;;29.10;41.50;;;;;;5060631;28;20492;-80
2022/08/16 04:34:24;;;;;;;5.87;5.40;;;29.10;41.50;;;;;;5060317;28;20454;-80
2022/08/16 04:36:53;;;;;;;6.10;5.70;;;29.10;41.50;;;;;;5059909;28;20451;-78
2022/08/16 04:39:23;;;;;;;6.37;5.87;;;29.00;41.60;;;;;;5061186;28;20930;-79
2022/08/16 04:42:11;;;;;;;5.93;5.47;;;29.10;41.70;;;;;;5061114;28;21005;-79
2022/08/16 04:44:39;;;;;;;5.77;5.37;;;29.10;41.70;;;;;;5060934;28;20442;-79
2022/08/16 04:47:23;;;;;;;5.80;5.40;;;29.00;41.80;;;;;;5061063;28;20452;-79
2022/08/16 04:50:00;;;;;;;6.20;5.70;;;29.10;41.90;;;;;;5060340;28;20452;-79
2022/08/16 04:52:28;;;;;;;5.80;5.40;;;29.10;42.00;;;;;;5061163;28;20409;-79
2022/08/16 04:55:04;;;;;;;5.83;5.43;;;29.10;41.90;;;;;;5063390;28;20467;-79
2022/08/16 04:57:34;;;;;;;5.80;5.40;;;29.10;41.90;;;;;;5062553;28;20452;-79
2022/08/16 05:00:06;;;;;;;6.00;5.40;;;29.10;41.90;;;;;;5062315;28;20444;-79
2022/08/16 05:02:55;;;;;;;5.80;5.20;;;29.10;41.90;;;;;;5061527;28;20490;-79
2022/08/16 05:05:29;;;;;;;6.03;5.53;;;29.10;42.00;;;;;;5060872;28;20900;-79
2022/08/16 05:08:07;;;;;;;5.63;5.33;;;29.10;41.90;;;;;;5060949;28;20529;-80
2022/08/16 05:10:54;;;;;;;5.70;5.30;;;29.20;41.90;;;;;;5060979;28;20442;-79
2022/08/16 05:13:27;;;;;;;5.47;5.17;;;29.20;41.80;;;;;;5062340;28;20453;-79
2022/08/16 05:16:10;;;;;;;6.03;5.63;;;29.20;41.80;;;;;;5062537;28;20456;-79
2022/08/16 05:18:47;;;;;;;6.20;5.70;;;29.20;41.90;;;;;;5062468;28;20445;-79
2022/08/16 05:21:16;;;;;;;6.20;5.70;;;29.10;41.80;;;;;;5062227;28;20442;-80
2022/08/16 05:23:48;;;;;;;5.80;5.33;;;29.20;42.10;;;;;;5063161;28;20491;-80
2022/08/16 05:26:23;;;;;;;6.27;5.77;;;29.20;42.20;;;;;;5062193;28;20454;-80
2022/08/16 05:28:55;;;;;;;6.10;5.70;;;29.20;42.10;;;;;;5061990;28;20481;-80
2022/08/16 05:31:23;;;;;;;6.20;5.80;;;29.20;41.80;;;;;;5062105;28;20440;-80
2022/08/16 05:33:58;;;;;;;5.77;5.37;;;29.20;42.20;;;;;;5061846;28;20462;-80
2022/08/16 05:36:27;;;;;;;5.80;5.30;;;29.20;42.00;;;;;;5062772;28;20424;-80
2022/08/16 05:39:05;;;;;;;6.00;5.70;;;29.30;42.00;;;;;;5063045;28;20439;-80
2022/08/16 05:52:13;;;;;;;6.07;5.67;;;29.30;41.90;;;;;;5116159;27;20537;-84
2022/08/16 05:54:47;;;;;;;6.67;6.17;;;29.50;41.90;;;;;;5116189;28;20446;-83
2022/08/16 05:57:28;;;;;;;6.30;5.90;;;29.50;42.00;;;;;;5116200;28;20414;-84
2022/08/16 06:00:03;;;;;;;6.50;6.00;;;29.50;42.00;;;;;;5115945;28;20449;-84
2022/08/16 06:02:36;;;;;;;5.50;5.20;;;29.70;42.00;;;;;;5117567;28;20442;-83
2022/08/16 06:05:05;;;;;;;6.20;5.70;;;29.80;41.70;;;;;;5118425;28;20496;-84
2022/08/16 06:07:39;;;;;;;6.53;5.73;;;29.80;41.60;;;;;;5117953;28;20448;-84
2022/08/16 06:10:07;;;;;;;6.13;5.63;;;29.80;41.50;;;;;;5117782;28;20445;-84
2022/08/16 06:12:36;;;;;;;7.43;5.70;;;29.90;41.60;;;;;;5115523;28;20422;-84
2022/08/16 06:15:08;;;;;;;5.73;5.33;;;29.90;41.70;;;;;;5115236;28;20439;-84
2022/08/16 06:17:37;;;;;;;5.50;5.17;;;30.00;41.50;;;;;;5115505;28;20470;-84
2022/08/16 06:20:13;;;;;;;5.63;5.23;;;30.00;41.60;;;;;;5115206;28;20467;-83
2022/08/16 06:22:44;;;;;;;8.83;6.00;;;30.10;41.50;;;;;;5115168;28;20414;-84
2022/08/16 06:25:24;;;;;;;6.70;6.00;;;30.10;41.50;;;;;;5114886;28;20423;-84
2022/08/16 06:28:03;;;;;;;6.47;5.97;;;30.10;41.60;;;;;;5114728;28;20445;-84
2022/08/16 06:30:36;;;;;;;5.50;5.20;;;30.10;41.50;;;;;;5115503;28;20439;-84
2022/08/16 06:33:12;;;;;;;5.90;5.40;;;30.10;41.60;;;;;;5115751;28;20442;-84
2022/08/16 06:35:46;;;;;;;5.97;5.47;;;30.20;41.70;;;;;;5114815;28;20501;-84
2022/08/16 06:38:16;;;;;;;5.73;5.33;;;30.20;41.60;;;;;;5115566;28;20462;-84
2022/08/16 06:41:02;;;;;;;5.83;5.43;;;30.20;41.80;;;;;;5115194;28;20547;-84
2022/08/16 06:43:30;;;;;;;6.37;5.73;;;30.20;41.80;;;;;;5114749;28;20444;-84
2022/08/16 06:45:59;;;;;;;5.90;5.50;;;30.30;41.70;;;;;;5115022;28;20448;-84
2022/08/16 06:48:30;;;;;;;5.53;5.23;;;30.30;41.90;;;;;;5115284;28;20468;-84
2022/08/16 06:51:01;;;;;;;6.80;6.00;;;30.30;41.80;;;;;;5113465;28;20459;-84
2022/08/16 06:53:32;;;;;;;6.13;5.63;;;30.30;41.90;;;;;;5100392;28;20881;-84
2022/08/16 06:56:04;;;;;;;8.57;6.27;;;30.30;41.90;;;;;;5101076;28;20451;-84
2022/08/16 06:58:33;;;;;;;5.90;5.50;;;30.30;41.80;;;;;;5100538;28;20458;-84
2022/08/16 07:01:03;;;;;;;6.77;6.30;;;30.40;42.10;;;;;;5100357;28;20451;-84
2022/08/16 07:03:41;;;;;;;7.03;6.43;;;30.40;42.10;;;;;;5100416;28;20469;-84
2022/08/16 07:06:24;;;;;;;6.73;6.13;;;30.40;42.20;;;;;;5100365;28;20447;-83
2022/08/16 07:08:55;;;;;;;6.73;6.10;;;30.40;42.10;;;;;;5099434;28;20448;-84
2022/08/16 07:11:24;;;;;;;7.10;6.00;;;30.40;42.30;;;;;;5100710;28;20415;-84
2022/08/16 07:14:12;;;;;;;5.67;5.17;;;30.50;42.30;;;;;;5099899;28;20511;-84
2022/08/16 07:16:54;;;;;;;7.83;6.20;;;30.40;42.30;;;;;;5100895;28;20451;-84
2022/08/16 07:19:21;;;;;;;7.27;5.87;;;30.50;42.20;;;;;;5099989;28;20540;-84
2022/08/16 07:22:10;;;;;;;6.10;5.60;;;30.50;42.90;;;;;;5100865;28;20436;-83
2022/08/16 07:25:00;;;;;;;6.13;5.70;;;30.50;41.90;;;;;;5100102;28;20532;-84
2022/08/16 07:27:28;;;;;;;6.30;5.70;;;30.60;41.80;;;;;;5100277;28;20807;-84
2022/08/16 07:30:00;;;;;;;6.17;5.77;;;30.70;41.90;;;;;;5100082;28;20457;-84
2022/08/16 07:32:28;;;;;;;5.60;5.27;;;30.70;41.70;;;;;;5099659;28;20451;-84
2022/08/16 07:34:58;;;;;;;6.43;5.93;;;30.70;41.80;;;;;;5100328;28;20481;-84
2022/08/16 07:37:26;;;;;;;5.70;5.30;;;30.70;41.60;;;;;;5100944;28;20424;-84
2022/08/16 07:39:56;;;;;;;6.40;5.90;;;30.80;41.30;;;;;;5100312;28;20482;-84
2022/08/16 07:42:25;;;;;;;6.47;6.07;;;30.80;41.60;;;;;;5099705;28;20494;-84
2022/08/16 07:45:02;;;;;;;5.77;5.37;;;30.80;41.20;;;;;;5099917;28;20431;-84
2022/08/16 07:47:34;;;;;;;5.87;5.47;;;30.80;41.40;;;;;;5099414;28;20943;-84
2022/08/16 07:50:05;;;;;;;6.67;6.07;;;30.80;41.40;;;;;;5099760;28;20445;-85
2022/08/16 07:52:34;;;;;;;7.40;5.90;;;30.80;41.60;;;;;;5099744;28;20444;-84
2022/08/16 07:55:06;;;;;;;5.90;5.40;;;30.80;41.10;;;;;;5101713;28;20475;-84
2022/08/16 07:57:36;;;;;;;5.97;5.57;;;30.90;41.40;;;;;;5099807;28;20421;-84
2022/08/16 08:00:24;;;;;;;6.43;6.03;;;30.90;41.30;;;;;;5099458;28;20437;-84
2022/08/16 08:02:54;;;;;;;6.57;5.97;;;31.00;41.40;;;;;;5098994;28;20449;-84
2022/08/16 08:05:23;;;;;;;7.07;6.37;;;31.00;41.40;;;;;;5098894;28;20461;-84
2022/08/16 08:08:03;;;;;;;5.37;4.97;;;31.10;41.30;;;;;;5099099;28;20441;-84
2022/08/16 08:10:51;;;;;;;6.47;5.97;;;31.10;41.20;;;;;;5099035;28;20440;-84
2022/08/16 08:13:20;;;;;;;5.97;5.60;;;31.20;41.20;;;;;;5098715;28;20403;-84
2022/08/16 08:16:09;;;;;;;5.90;5.50;;;31.20;41.20;;;;;;5098917;28;20437;-84
2022/08/16 08:18:46;;;;;;;6.47;5.87;;;31.20;41.20;;;;;;5099341;28;20440;-84
2022/08/16 08:21:18;;;;;;;5.30;5.00;;;31.30;41.00;;;;;;5098435;28;20544;-83
2022/08/16 08:23:56;;;;;;;6.23;5.73;;;31.40;41.00;;;;;;5098356;28;20471;-84
2022/08/16 08:26:24;;;;;;;6.17;5.57;;;31.40;41.00;;;;;;5098543;28;20433;-84
2022/08/16 08:28:56;;;;;;;5.43;4.97;;;31.40;40.90;;;;;;5101170;28;20481;-84
2022/08/16 08:31:28;;;;;;;5.90;5.50;;;31.50;40.80;;;;;;5100114;28;20426;-83
2022/08/16 08:33:59;;;;;;;6.67;5.97;;;31.50;40.80;;;;;;5100042;28;20469;-84
2022/08/16 08:36:32;;;;;;;9.30;6.00;;;31.60;40.80;;;;;;5098746;28;20440;-84
2022/08/16 08:39:04;;;;;;;6.23;5.63;;;31.70;40.60;;;;;;5098077;28;20420;-84
2022/08/16 08:41:40;;;;;;;6.93;5.77;;;31.80;40.50;;;;;;5098040;28;20464;-84
2022/08/16 08:44:10;;;;;;;8.73;5.27;;;31.80;40.40;;;;;;5098083;28;20490;-84
2022/08/16 08:46:58;;;;;;;6.00;5.40;;;31.90;40.60;;;;;;5098024;28;20463;-84
2022/08/16 08:49:29;;;;;;;6.60;6.00;;;32.00;40.70;;;;;;5098958;28;20455;-84
2022/08/16 08:52:18;;;;;;;6.63;5.47;;;32.10;40.40;;;;;;5098299;28;20519;-83
2022/08/16 08:55:04;;;;;;;8.07;5.57;;;32.20;40.50;;;;;;5099370;28;20538;-84
2022/08/16 08:57:38;;;;;;;6.03;5.63;;;32.20;40.20;;;;;;5098166;28;20504;-84
2022/08/16 09:00:10;;;;;;;8.70;5.53;;;32.20;40.30;;;;;;5099597;28;20449;-84
2022/08/16 09:02:41;;;;;;;5.83;5.37;;;32.20;40.40;;;;;;5099301;28;20411;-84
2022/08/16 09:05:09;;;;;;;5.40;5.00;;;32.30;40.40;;;;;;5098531;28;20452;-84
2022/08/16 09:07:42;;;;;;;5.90;5.50;;;32.40;40.40;;;;;;5098691;28;20448;-84
2022/08/16 09:10:28;;;;;;;5.73;5.10;;;32.60;40.10;;;;;;5099081;28;20442;-84
2022/08/16 09:12:56;;;;;;;5.63;5.20;;;32.70;40.20;;;;;;5098516;28;20468;-84
2022/08/16 09:15:26;;;;;;;5.83;5.27;;;32.70;40.00;;;;;;5097669;28;20483;-83
2022/08/16 09:18:01;;;;;;;5.87;5.40;;;32.80;40.20;;;;;;5097607;28;20403;-83
2022/08/16 09:20:51;;;;;;;5.20;4.80;;;33.00;40.50;;;;;;5098136;28;20440;-83
2022/08/16 09:23:27;;;;;;;6.17;5.57;;;33.20;40.10;;;;;;5098334;28;20942;-82
2022/08/16 09:25:55;;;;;;;6.80;5.57;;;33.40;40.10;;;;;;5098284;28;20472;-82
2022/08/16 09:28:24;;;;;;;5.83;5.30;;;33.50;40.00;;;;;;5099031;28;20531;-83
2022/08/16 09:31:13;;;;;;;7.33;5.60;;;33.70;39.80;;;;;;5101280;28;20410;-84
2022/08/16 09:33:42;;;;;;;6.10;5.60;;;33.70;40.10;;;;;;5101353;28;20465;-84
2022/08/16 09:36:09;;;;;;;5.40;4.90;;;33.60;40.50;;;;;;5103516;28;20464;-81
2022/08/16 09:38:58;;;;;;;5.97;5.47;;;33.80;40.70;;;;;;5103382;28;20501;-80
2022/08/16 09:41:26;;;;;;;5.37;4.97;;;33.90;40.70;;;;;;5100835;28;20440;-80
2022/08/16 09:43:55;;;;;;;7.20;5.23;;;34.10;40.50;;;;;;5100622;28;20476;-80
2022/08/16 09:46:29;;;;;;;5.70;5.30;;;34.40;40.30;;;;;;5101895;28;20447;-80
2022/08/16 09:49:15;;;;;;;5.17;4.67;;;34.70;39.90;;;;;;5100659;28;20950;-80
2022/08/16 09:51:46;;;;;;;4.80;4.43;;;35.00;39.70;;;;;;5100719;28;20472;-80
2022/08/16 09:54:16;;;;;;;5.03;4.63;;;35.30;39.50;;;;;;5101034;28;20467;-80
2022/08/16 09:56:47;;;;;;;7.77;4.67;;;35.50;39.40;;;;;;5102740;28;20449;-80
2022/08/16 09:59:20;;;;;;;4.50;4.30;;;35.70;39.20;;;;;;5105903;28;20472;-81
2022/08/16 10:01:50;;;;;;;4.57;4.17;;;36.00;38.90;;;;;;5102356;28;20444;-80
2022/08/16 10:04:18;;;;;;;4.30;4.10;;;36.20;38.80;;;;;;5100199;28;20499;-81
2022/08/16 10:07:02;;;;;;;4.60;4.20;;;36.40;38.60;;;;;;5100406;28;20441;-81
2022/08/16 10:09:43;;;;;;;4.93;4.63;;;36.60;38.20;;;;;;5100655;28;20851;-80
2022/08/16 10:15:10;;;;;;;6.10;4.00;;;37.10;37.90;;;;;;5099885;28;20464;-81
2022/08/16 10:17:45;;;;;;;3.90;3.70;;;37.30;37.70;;;;;;5099846;28;20516;-81
2022/08/16 10:20:28;;;;;;;3.30;3.20;;;37.60;37.40;;;;;;5099932;28;20460;-81
2022/08/16 10:22:56;;;;;;;4.60;4.30;;;37.80;37.10;;;;;;5099772;28;20448;-81
2022/08/16 10:25:33;;;;;;;3.77;3.67;;;38.00;36.80;;;;;;5100546;28;20468;-81
2022/08/16 10:28:21;;;;;;;4.10;3.83;;;38.30;36.60;;;;;;5102872;28;20451;-81
2022/08/16 10:30:59;;;;;;;3.97;3.77;;;38.50;36.40;;;;;;5103345;28;20459;-81
2022/08/16 10:33:32;;;;;;;4.07;3.77;;;38.70;36.30;;;;;;5102539;28;20468;-81
2022/08/16 10:36:01;;;;;;;4.07;3.87;;;38.90;35.90;;;;;;5102795;28;20432;-81
2022/08/16 10:38:31;;;;;;;3.67;3.47;;;39.10;35.70;;;;;;5102643;28;20504;-81
2022/08/16 10:41:00;;;;;;;4.20;3.80;;;39.30;35.50;;;;;;5103333;28;20440;-81
2022/08/16 10:43:28;;;;;;;5.80;3.43;;;39.50;35.40;;;;;;5102706;28;20436;-81
2022/08/16 10:45:58;;;;;;;3.70;3.40;;;39.70;35.20;;;;;;5102972;28;20459;-81
2022/08/16 10:48:27;;;;;;;3.40;3.30;;;39.90;34.80;;;;;;5102772;28;20441;-80
2022/08/16 10:50:59;;;;;;;4.10;3.90;;;40.10;34.70;;;;;;5105057;28;20455;-81
2022/08/16 10:53:28;;;;;;;3.90;3.73;;;40.30;34.40;;;;;;5102511;28;20475;-81
2022/08/16 10:56:00;;;;;;;3.43;3.33;;;40.60;34.20;;;;;;5102744;28;20485;-81
2022/08/16 10:58:29;;;;;;;3.50;3.30;;;40.80;33.80;;;;;;5102879;28;20428;-81
2022/08/16 11:01:01;;;;;;;3.53;3.37;;;40.90;33.60;;;;;;5102124;28;20451;-80
2022/08/16 11:03:49;;;;;;;3.60;3.50;;;40.90;33.40;;;;;;5101874;28;20452;-81
2022/08/16 11:06:22;;;;;;;3.67;3.47;;;41.00;33.20;;;;;;5101884;28;20472;-81
2022/08/16 11:08:57;;;;;;;3.30;3.20;;;41.20;33.20;;;;;;5101643;28;20871;-81
2022/08/16 11:11:45;;;;;;;3.53;3.33;;;41.30;33.00;;;;;;5102536;28;20523;-80
2022/08/16 11:14:33;;;;;;;3.53;3.43;;;41.30;32.90;;;;;;5101671;28;20472;-80
2022/08/16 11:17:01;;;;;;;3.10;3.00;;;41.50;32.80;;;;;;5105116;28;20472;-80
2022/08/16 11:19:40;;;;;;;3.03;2.93;;;41.70;32.60;;;;;;5101986;28;20461;-81
2022/08/16 11:22:30;;;;;;;3.40;3.30;;;42.00;32.40;;;;;;5101447;28;20429;-80
2022/08/16 11:25:17;;;;;;;3.53;3.20;;;41.90;32.10;;;;;;5101734;28;20990;-80
2022/08/16 11:28:05;;;;;;;3.23;3.13;;;41.90;31.90;;;;;;5101021;28;20945;-81
2022/08/16 11:30:34;;;;;;;3.20;3.00;;;41.60;32.10;;;;;;5101810;28;20444;-80
2022/08/16 11:33:06;;;;;;;3.50;3.20;;;41.40;32.30;;;;;;5101074;28;20472;-80
2022/08/16 11:35:34;;;;;;;3.10;2.97;;;41.30;32.30;;;;;;5099838;28;20463;-80
2022/08/16 11:38:24;;;;;;;3.50;3.20;;;41.30;32.70;;;;;;5101044;28;20428;-80
2022/08/16 11:41:12;;;;;;;3.43;3.23;;;42.00;31.10;;;;;;5100865;28;20504;-80
2022/08/16 11:43:40;;;;;;;3.10;2.93;;;41.70;32.00;;;;;;5101403;28;20460;-81
2022/08/16 11:46:11;;;;;;;2.73;2.63;;;42.50;31.40;;;;;;5101777;28;20443;-81
2022/08/16 11:48:58;;;;;;;2.57;2.47;;;44.50;29.20;;;;;;5101790;28;20427;-81
2022/08/16 11:51:27;;;;;;;2.20;2.10;;;45.80;28.00;;;;;;5100812;28;20527;-81
2022/08/16 11:53:58;;;;;;;1.93;1.93;;;46.50;27.60;;;;;;5101112;28;20562;-81
2022/08/16 11:56:37;;;;;;;1.93;1.83;;;46.80;26.80;;;;;;5102364;28;20444;-81
2022/08/16 11:59:20;;;;;;;2.47;2.38;;;46.80;27.10;;;;;;5100857;28;20506;-81
2022/08/16 12:01:55;;;;;;;1.77;1.77;;;47.70;26.50;;;;;;5101182;28;20219;-81
2022/08/16 12:04:27;;;;;;;1.88;1.77;;;48.20;25.90;;;;;;5100774;28;20216;-81
2022/08/16 12:06:56;;;;;;;1.77;1.77;;;48.50;25.80;;;;;;5101244;28;20207;-79
2022/08/16 12:09:25;;;;;;;2.00;1.90;;;48.90;25.00;;;;;;5100812;28;20609;-78
2022/08/16 12:11:57;;;;;;;2.00;1.65;;;48.30;25.70;;;;;;5100177;28;20204;-79
2022/08/16 12:14:30;;;;;;;1.75;1.75;;;48.60;25.60;;;;;;5099860;28;20261;-79
2022/08/16 12:17:06;;;;;;;1.60;1.60;;;49.10;25.40;;;;;;5100422;28;20202;-79
2022/08/16 12:19:35;;;;;;;1.50;1.50;;;50.20;24.10;;;;;;5100438;28;20631;-79
2022/08/16 12:22:04;;;;;;;1.63;1.60;;;50.60;23.90;;;;;;5100864;28;20291;-79
2022/08/16 12:24:48;;;;;;;1.40;1.40;;;51.50;23.40;;;;;;5100394;28;20295;-79
2022/08/16 12:27:20;;;;;;;1.42;1.30;;;52.10;23.10;;;;;;5101277;28;20751;-79
2022/08/16 12:29:51;;;;;;;1.13;1.13;;;52.50;22.90;;;;;;5101143;28;20267;-79
2022/08/16 12:32:19;;;;;;;1.20;1.20;;;52.90;22.20;;;;;;5100717;28;20654;-79
2022/08/16 12:35:08;;;;;;;1.33;1.33;;;53.20;22.20;;;;;;5100321;28;20291;-79
2022/08/16 12:37:37;;;;;;;1.33;1.23;;;53.70;21.70;;;;;;5101164;28;20203;-79
2022/08/16 12:40:09;;;;;;;1.20;1.20;;;53.90;21.60;;;;;;5100857;28;20203;-79
2022/08/16 12:42:51;;;;;;;1.10;1.10;;;54.20;21.50;;;;;;5100850;28;20206;-79
2022/08/16 12:45:21;;;;;;;1.10;1.10;;;54.50;21.30;;;;;;5100076;28;20228;-78
2022/08/16 12:50:54;;;;;;;2.08;1.50;;;52.30;22.30;;;;;;5099466;28;20255;-81
2022/08/16 12:53:23;;;;;;;2.67;2.05;;;51.10;23.40;;;;;;5099974;28;20241;-81
2022/08/16 12:56:00;;;;;;;1.45;1.45;;;51.80;22.90;;;;;;5100892;28;20210;-81
2022/08/16 12:58:28;;;;;;;1.90;1.85;;;51.00;22.80;;;;;;5099981;28;20203;-81
2022/08/16 13:01:16;;;;;;;1.50;1.50;;;49.80;24.00;;;;;;5099903;28;20200;-81
2022/08/16 13:03:45;;;;;;;1.42;1.42;;;50.80;23.60;;;;;;5099651;28;20710;-81
2022/08/16 13:06:13;;;;;;;1.40;1.40;;;51.80;23.00;;;;;;5099783;28;20290;-79
2022/08/16 13:08:47;;;;;;;1.33;1.33;;;52.60;22.60;;;;;;5099460;28;20203;-79
2022/08/16 13:11:16;;;;;;;1.40;1.40;;;53.10;22.10;;;;;;5099381;28;20208;-79
2022/08/16 13:13:44;;;;;;;1.10;1.10;;;53.40;21.90;;;;;;5099595;28;20300;-79
2022/08/16 13:16:21;;;;;;;1.15;1.15;;;53.70;21.60;;;;;;5099942;28;20214;-79
2022/08/16 13:18:54;;;;;;;1.13;1.13;;;53.90;21.60;;;;;;5099780;28;20210;-79
2022/08/16 13:21:22;;;;;;;1.08;1.08;;;54.10;21.60;;;;;;5100752;28;20196;-79
2022/08/16 13:23:51;;;;;;;1.23;1.23;;;53.40;21.70;;;;;;5103162;28;20261;-79
2022/08/16 13:26:24;;;;;;;1.27;1.27;;;52.70;22.30;;;;;;5102295;28;20286;-79
2022/08/16 13:28:53;;;;;;;1.33;1.27;;;52.20;22.60;;;;;;5099092;28;20207;-78
2022/08/16 13:31:21;;;;;;;1.30;1.30;;;51.70;22.90;;;;;;5098938;28;20235;-78
2022/08/16 13:33:51;;;;;;;1.20;1.20;;;51.30;23.20;;;;;;5099191;28;20234;-78
2022/08/16 13:36:25;;;;;;;1.67;1.58;;;50.80;23.70;;;;;;5098392;28;20227;-78
2022/08/16 13:39:13;;;;;;;1.50;1.40;;;50.20;24.10;;;;;;5099301;28;20208;-81